Time;durP1;ratioP1;P1;durP2;ratioP2;P2;SDS_P1;SDS_P2;PMS_P1;PMS_P2;Temp;Humidity;BMP_temperature;BMP_pressure;BME280_temperature;BME280_humidity;BME280_pressure;Samples;Min_cycle;Max_cycle;Signal;HPM_P1;HPM_P2
2022/06/03 00:00:09;;;;;;;7.68;6.97;;;;;;;12.82;64.10;101863.59;4937221;28;20063;-91
2022/06/03 00:02:55;;;;;;;7.90;7.10;;;;;;;12.79;64.71;101860.28;4943946;28;20089;-90
2022/06/03 00:05:36;;;;;;;8.15;7.35;;;;;;;12.73;65.67;101865.97;4939483;28;20059;-91
2022/06/03 00:08:10;;;;;;;7.50;6.80;;;;;;;12.68;65.72;101862.81;4952293;28;20133;-91
2022/06/03 00:10:49;;;;;;;8.85;7.32;;;;;;;12.67;65.12;101864.59;4955570;28;20035;-90
2022/06/03 00:13:43;;;;;;;7.90;7.20;;;;;;;12.62;65.50;101866.69;4939216;28;20033;-91
2022/06/03 00:16:46;;;;;;;9.02;7.15;;;;;;;12.63;65.45;101859.63;4950080;28;20045;-91
2022/06/03 00:19:20;;;;;;;8.05;7.25;;;;;;;12.59;66.61;101858.13;4954765;28;20023;-91
2022/06/03 00:22:15;;;;;;;8.25;7.50;;;;;;;12.60;65.42;101865.09;4969873;28;20027;-91
2022/06/03 00:25:12;;;;;;;8.48;7.55;;;;;;;12.58;65.65;101859.94;4969113;28;20034;-91
2022/06/03 00:27:56;;;;;;;8.60;7.80;;;;;;;12.51;66.25;101856.84;4947501;28;20388;-90
2022/06/03 00:30:40;;;;;;;8.20;7.40;;;;;;;12.45;66.82;101857.25;4956763;28;20089;-91
2022/06/03 00:33:52;;;;;;;8.00;7.22;;;;;;;12.46;66.00;101858.13;4954790;28;20027;-91
2022/06/03 00:36:18;;;;;;;9.18;7.90;;;;;;;12.37;67.09;101864.81;4938526;29;20513;-91
2022/06/03 00:38:52;;;;;;;8.20;7.50;;;;;;;12.35;67.26;101864.06;4970914;28;20039;-91
2022/06/03 00:41:43;;;;;;;8.70;7.57;;;;;;;12.35;66.97;101856.16;4972915;28;20023;-91
2022/06/03 00:45:05;;;;;;;9.25;7.50;;;;;;;12.31;67.17;101852.03;4963727;28;20110;-91
2022/06/03 00:47:47;;;;;;;9.80;7.47;;;;;;;12.29;67.50;101856.56;4896526;29;20030;-91
2022/06/03 00:50:37;;;;;;;8.80;7.90;;;;;;;12.27;67.24;101858.44;4904385;29;20071;-90
2022/06/03 00:53:24;;;;;;;8.13;7.28;;;;;;;12.24;68.09;101856.00;4940352;28;20050;-91
2022/06/03 00:56:37;;;;;;;8.73;7.82;;;;;;;12.22;67.55;101849.97;4971374;28;20026;-91
2022/06/03 00:59:02;;;;;;;8.98;7.72;;;;;;;12.16;68.29;101851.22;4975421;28;20046;-91
2022/06/03 01:01:34;;;;;;;8.65;7.72;;;;;;;12.14;68.62;101849.63;4955233;28;20061;-90
2022/06/03 01:04:18;;;;;;;9.32;8.07;;;;;;;12.11;68.27;101849.84;4966668;28;20039;-91
2022/06/03 01:06:51;;;;;;;9.30;7.97;;;;;;;12.06;68.63;101849.28;4969289;28;20087;-91
2022/06/03 01:09:17;;;;;;;9.80;8.15;;;;;;;12.03;68.96;101839.78;4967941;28;20086;-91
2022/06/03 01:12:03;;;;;;;10.02;8.10;;;;;;;12.08;69.05;101847.41;4952079;28;20027;-91
2022/06/03 01:15:19;;;;;;;8.32;7.53;;;;;;;12.10;68.04;101841.06;4965318;28;20029;-90
2022/06/03 01:18:18;;;;;;;10.68;8.05;;;;;;;12.07;68.75;101841.28;4948623;29;20449;-91
2022/06/03 01:20:59;;;;;;;8.57;7.60;;;;;;;12.03;68.68;101828.38;4949574;28;20118;-90
2022/06/03 01:23:49;;;;;;;8.23;7.43;;;;;;;12.03;69.45;101831.03;4945316;29;20031;-91
2022/06/03 01:26:35;;;;;;;9.18;7.82;;;;;;;12.03;68.68;101828.38;4952278;29;20504;-90
2022/06/03 01:29:27;;;;;;;8.32;7.53;;;;;;;12.02;68.76;101819.63;4953478;29;20101;-90
2022/06/03 01:32:30;;;;;;;8.30;7.50;;;;;;;12.02;68.55;101821.41;4951055;29;20547;-91
2022/06/03 01:35:36;;;;;;;8.70;7.88;;;;;;;12.02;69.18;101819.63;4917467;29;20557;-91
2022/06/03 01:38:18;;;;;;;8.98;7.90;;;;;;;12.02;69.36;101817.00;4938339;28;20063;-91
2022/06/03 01:40:55;;;;;;;8.45;7.60;;;;;;;12.04;69.19;101815.09;4960451;28;20055;-91
2022/06/03 01:43:36;;;;;;;9.75;7.50;;;;;;;12.06;69.48;101809.72;4969653;28;20027;-91
2022/06/03 01:46:58;;;;;;;11.10;8.10;;;;;;;12.08;68.50;101805.19;4927731;28;20036;-91
2022/06/03 01:49:53;;;;;;;8.18;7.47;;;;;;;12.04;69.24;101812.47;4923050;28;20573;-91
2022/06/03 01:52:57;;;;;;;8.55;7.85;;;;;;;12.07;68.89;101814.06;4919177;28;20042;-90
2022/06/03 01:55:41;;;;;;;8.50;7.70;;;;;;;12.02;69.69;101802.97;4935419;28;20038;-90
2022/06/03 01:58:35;;;;;;;8.80;7.88;;;;;;;12.02;68.86;101806.44;4942334;28;20023;-90
2022/06/03 02:01:38;;;;;;;9.07;7.43;;;;;;;12.00;69.29;101796.91;4937417;29;20134;-91
2022/06/03 02:04:17;;;;;;;9.90;8.18;;;;;;;11.96;69.47;101805.97;4935953;29;20055;-90
2022/06/03 02:06:54;;;;;;;8.20;7.45;;;;;;;11.93;69.48;101802.56;4950286;28;20073;-90
2022/06/03 02:09:50;;;;;;;12.02;7.80;;;;;;;11.90;69.72;101796.66;4951096;28;20031;-91
2022/06/03 02:12:57;;;;;;;8.82;7.93;;;;;;;11.88;69.51;101788.84;4951041;28;20038;-90
2022/06/03 02:15:41;;;;;;;9.10;8.20;;;;;;;11.80;70.28;101785.88;4903168;28;20385;-91
2022/06/03 02:18:31;;;;;;;9.32;8.43;;;;;;;11.80;70.33;101785.00;4959362;28;20031;-90
2022/06/03 02:21:21;;;;;;;9.18;8.27;;;;;;;11.79;70.37;101794.72;4940133;29;20043;-90
2022/06/03 02:24:12;;;;;;;9.00;8.20;;;;;;;11.74;70.58;101802.03;4951232;28;20066;-90
2022/06/03 02:26:56;;;;;;;10.35;8.15;;;;;;;11.70;71.19;101789.16;4918651;29;20139;-91
2022/06/03 02:32:47;;;;;;;9.02;8.00;;;;;;;11.67;70.51;101795.47;4951173;28;20037;-91
2022/06/03 02:35:38;;;;;;;9.10;8.25;;;;;;;11.65;70.82;101792.09;4942872;29;20015;-91
2022/06/03 02:38:22;;;;;;;9.20;8.30;;;;;;;11.60;71.56;101788.88;4907655;28;20556;-91
2022/06/03 02:41:18;;;;;;;9.52;8.13;;;;;;;11.63;71.52;101793.13;4950707;29;20690;-90
2022/06/03 02:44:14;;;;;;;9.95;8.95;;;;;;;11.58;71.51;101785.47;4931394;29;20375;-90
2022/06/03 02:47:05;;;;;;;10.55;8.73;;;;;;;11.53;72.19;101779.66;4914148;29;20135;-91
2022/06/03 02:49:31;;;;;;;9.43;8.52;;;;;;;11.50;72.31;101777.22;4924197;29;20043;-90
2022/06/03 02:52:37;;;;;;;10.73;9.07;;;;;;;11.50;71.33;101778.06;4916038;29;20123;-91
2022/06/03 02:55:30;;;;;;;9.52;8.63;;;;;;;11.48;71.81;101779.09;4923897;28;20046;-91
2022/06/03 02:58:14;;;;;;;;;;;;;;;11.52;70.07;101780.59;4935098;29;20397;-91
2022/06/03 03:01:11;;;;;;;9.85;8.57;;;;;;;11.45;71.74;101784.56;4934370;29;20368;-91
2022/06/03 03:04:13;;;;;;;9.90;9.00;;;;;;;11.45;71.70;101777.50;4951864;28;20040;-91
2022/06/03 03:06:40;;;;;;;9.80;8.77;;;;;;;11.41;72.33;101783.06;4970957;28;20027;-90
2022/06/03 03:09:09;;;;;;;9.75;8.85;;;;;;;11.41;72.87;101788.34;4950952;28;20444;-90
2022/06/03 03:12:02;;;;;;;9.55;8.70;;;;;;;11.41;72.04;101793.63;4948487;28;20703;-90
2022/06/03 03:14:40;;;;;;;9.50;8.60;;;;;;;11.40;72.71;101781.38;4944802;28;20031;-90
2022/06/03 03:17:30;;;;;;;10.75;8.90;;;;;;;11.41;72.58;101769.91;4970092;28;20050;-89
2022/06/03 03:20:21;;;;;;;10.45;9.40;;;;;;;11.36;72.67;101761.44;4955519;28;20070;-91
2022/06/03 03:23:08;;;;;;;11.30;9.15;;;;;;;11.34;72.55;101766.81;4948030;28;20062;-90
2022/06/03 03:26:02;;;;;;;10.88;9.13;;;;;;;11.34;72.79;101772.06;4951789;28;20023;-90
2022/06/03 03:28:30;;;;;;;10.68;9.10;;;;;;;11.29;73.44;101768.88;4954921;28;20027;-91
2022/06/03 03:31:12;;;;;;;10.18;9.18;;;;;;;11.25;73.39;101762.97;4959300;28;20023;-90
2022/06/03 03:33:56;;;;;;;13.65;9.52;;;;;;;11.24;73.82;101749.88;4940547;28;20038;-91
2022/06/03 03:36:44;;;;;;;10.75;9.75;;;;;;;11.24;73.91;101761.28;4972351;28;20105;-90
2022/06/03 03:39:50;;;;;;;10.70;9.70;;;;;;;11.25;73.50;101755.06;4952787;29;20461;-90
2022/06/03 03:42:46;;;;;;;11.43;10.20;;;;;;;11.20;73.83;101746.56;4956332;28;20023;-90
2022/06/03 03:45:42;;;;;;;11.27;10.07;;;;;;;11.21;73.59;101748.28;4971345;28;20062;-91
2022/06/03 03:48:32;;;;;;;11.00;9.98;;;;;;;11.20;73.53;101761.53;4933179;28;20027;-90
2022/06/03 03:51:18;;;;;;;10.25;9.25;;;;;;;11.21;73.63;101758.81;4945517;29;20035;-90
2022/06/03 03:54:26;;;;;;;12.57;9.93;;;;;;;11.18;73.73;101756.34;4949231;28;20025;-90
2022/06/03 03:57:02;;;;;;;10.68;9.63;;;;;;;11.17;74.13;101749.41;4942294;29;20032;-91
2022/06/03 03:59:54;;;;;;;11.00;9.90;;;;;;;11.18;74.31;101751.09;4966207;28;20119;-90
2022/06/03 04:02:41;;;;;;;10.40;9.38;;;;;;;11.19;74.45;101752.78;4955559;28;20035;-90
2022/06/03 04:05:25;;;;;;;12.05;10.15;;;;;;;11.28;74.44;101748.75;4944066;29;20034;-90
2022/06/03 04:08:08;;;;;;;10.10;9.20;;;;;;;11.99;72.31;101745.09;4942948;29;20674;-90
2022/06/03 04:10:59;;;;;;;9.85;8.52;;;;;;;13.22;68.63;101741.16;4958133;28;20023;-90
2022/06/03 04:13:54;;;;;;;8.75;7.90;;;;;;;14.31;66.22;101738.34;4885431;28;20493;-90
2022/06/03 04:16:52;;;;;;;9.32;7.75;;;;;;;15.14;62.83;101739.94;4931416;28;20043;-89
2022/06/03 04:19:31;;;;;;;8.00;7.20;;;;;;;15.60;59.97;101745.94;4922034;28;20035;-90
2022/06/03 04:22:16;;;;;;;8.57;7.70;;;;;;;14.82;62.16;101738.03;4940146;29;20022;-90
2022/06/03 04:24:50;;;;;;;8.45;7.65;;;;;;;14.07;63.38;101734.91;4944553;28;20035;-90
2022/06/03 04:27:45;;;;;;;9.90;8.48;;;;;;;13.63;64.98;101727.59;4953956;28;20073;-90
2022/06/03 04:30:22;;;;;;;10.82;8.25;;;;;;;13.09;66.43;101720.81;4947849;28;20043;-90
2022/06/03 04:33:29;;;;;;;9.40;8.50;;;;;;;12.71;67.40;101727.91;4942893;29;20397;-89
2022/06/03 04:36:16;;;;;;;9.38;8.45;;;;;;;12.44;68.74;101731.50;4925972;28;20073;-90
2022/06/03 04:39:22;;;;;;;11.48;8.85;;;;;;;12.35;69.20;101745.31;4942216;29;20528;-89
2022/06/03 04:42:12;;;;;;;9.95;8.95;;;;;;;12.21;70.10;101748.03;4937988;28;20042;-89
2022/06/03 04:45:06;;;;;;;9.95;8.93;;;;;;;12.19;70.37;101752.56;4961867;28;20086;-90
2022/06/03 04:47:51;;;;;;;10.32;9.27;;;;;;;12.13;71.07;101750.34;4960628;28;20015;-90
2022/06/03 04:50:52;;;;;;;11.23;9.93;;;;;;;12.05;71.38;101756.13;4956964;28;20672;-90
2022/06/03 04:54:11;;;;;;;11.57;9.45;;;;;;;12.06;71.07;101759.59;4897055;29;20075;-90
2022/06/03 04:57:11;;;;;;;11.75;9.48;;;;;;;12.01;71.64;101765.19;4951939;28;20145;-86
2022/06/03 04:59:55;;;;;;;11.63;10.15;;;;;;;11.98;72.46;101759.22;4942766;28;20030;-90
2022/06/03 05:02:57;;;;;;;11.73;10.52;;;;;;;12.02;71.84;101755.47;4951337;28;20064;-90
2022/06/03 05:05:43;;;;;;;11.23;10.15;;;;;;;12.08;71.73;101758.56;4956890;28;20369;-90
2022/06/03 05:08:20;;;;;;;11.45;10.10;;;;;;;12.13;72.48;101760.88;4934849;28;20061;-89
2022/06/03 05:11:04;;;;;;;10.48;9.57;;;;;;;12.21;72.05;101758.59;4937892;29;20438;-89
2022/06/03 05:13:55;;;;;;;11.77;10.57;;;;;;;12.26;72.30;101758.28;4939187;28;20027;-89
2022/06/03 05:17:00;;;;;;;11.75;10.55;;;;;;;12.29;72.13;101756.28;4952463;29;20397;-89
2022/06/03 05:20:02;;;;;;;12.15;9.73;;;;;;;12.31;71.71;101750.91;4954171;28;20023;-89
2022/06/03 05:22:47;;;;;;;11.48;10.15;;;;;;;12.38;72.15;101741.63;4951474;29;20093;-89
2022/06/03 05:25:25;;;;;;;11.90;10.70;;;;;;;12.42;71.94;101743.13;4946958;28;20019;-88
2022/06/03 05:28:07;;;;;;;12.00;10.68;;;;;;;12.42;72.16;101733.41;4951258;29;20470;-88
2022/06/03 05:30:42;;;;;;;11.65;10.45;;;;;;;12.47;72.30;101733.94;4947529;28;20031;-87
2022/06/03 05:33:34;;;;;;;12.27;10.48;;;;;;;12.50;72.06;101728.47;4953033;29;20548;-89
2022/06/03 05:36:36;;;;;;;11.23;10.20;;;;;;;12.63;71.41;101732.91;4950189;29;20127;-89
2022/06/03 05:39:30;;;;;;;10.93;9.93;;;;;;;12.76;71.32;101736.38;4934683;29;20062;-89
2022/06/03 05:42:37;;;;;;;11.70;10.52;;;;;;;12.86;70.69;101735.66;4949115;29;20023;-89
2022/06/03 05:45:33;;;;;;;13.68;10.30;;;;;;;12.97;71.15;101732.25;4897851;29;20105;-89
2022/06/03 05:48:31;;;;;;;11.85;10.25;;;;;;;13.07;70.92;101733.28;4947244;28;20085;-89
2022/06/03 05:51:34;;;;;;;10.93;9.82;;;;;;;13.14;69.91;101729.25;4951360;29;20026;-89
2022/06/03 05:54:27;;;;;;;10.13;9.13;;;;;;;13.21;69.43;101728.84;4935002;29;20026;-88
2022/06/03 05:57:14;;;;;;;11.73;9.50;;;;;;;13.27;69.52;101734.56;4934483;29;20101;-89
2022/06/03 06:00:00;;;;;;;10.30;9.02;;;;;;;13.34;69.41;101737.63;4930180;28;20066;-89
2022/06/03 06:02:40;;;;;;;10.63;9.57;;;;;;;13.41;69.59;101731.78;4936287;28;20566;-89
2022/06/03 06:05:24;;;;;;;10.40;9.30;;;;;;;13.50;69.31;101735.56;4941611;29;20046;-89
2022/06/03 06:08:14;;;;;;;10.98;9.95;;;;;;;13.59;69.39;101729.59;4958409;28;20102;-89
2022/06/03 06:10:45;;;;;;;10.57;9.57;;;;;;;13.65;68.62;101731.81;4938425;28;20099;-88
2022/06/03 06:13:13;;;;;;;10.18;9.18;;;;;;;13.74;69.44;101728.50;4954942;28;20027;-90
2022/06/03 06:15:51;;;;;;;11.00;9.90;;;;;;;13.83;68.93;101731.44;4947940;28;20045;-90
2022/06/03 06:18:27;;;;;;;11.30;10.20;;;;;;;13.92;69.11;101736.03;4942578;28;20019;-89
2022/06/03 06:21:17;;;;;;;10.75;9.52;;;;;;;13.99;68.50;101747.84;4966048;28;20525;-90
2022/06/03 06:23:43;;;;;;;13.32;10.95;;;;;;;14.07;68.98;101745.50;4961770;28;20473;-90
2022/06/03 06:26:30;;;;;;;11.75;10.27;;;;;;;14.17;68.32;101748.31;4958549;28;20042;-90
2022/06/03 06:29:13;;;;;;;12.35;9.77;;;;;;;14.26;68.02;101740.50;4955111;28;20031;-90
2022/06/03 06:31:57;;;;;;;11.02;9.98;;;;;;;14.39;68.19;101730.66;4934173;29;20024;-89
2022/06/03 06:34:44;;;;;;;10.85;9.70;;;;;;;14.52;67.70;101729.78;4947757;28;20035;-90
2022/06/03 06:37:26;;;;;;;10.70;9.55;;;;;;;14.60;66.85;101733.53;4949192;28;20114;-90
2022/06/03 06:40:02;;;;;;;11.32;9.70;;;;;;;14.70;66.97;101731.88;4932965;29;20082;-90
2022/06/03 06:42:30;;;;;;;10.93;7.97;;;;;;;14.76;65.18;101722.59;4950394;28;20027;-90
2022/06/03 06:45:22;;;;;;;11.07;8.35;;;;;;;14.90;66.11;101719.72;4952017;28;20019;-91
2022/06/03 06:48:11;;;;;;;8.40;7.57;;;;;;;15.03;65.48;101736.34;4949063;28;20062;-90
2022/06/03 06:50:51;;;;;;;10.27;9.13;;;;;;;15.14;65.42;101726.69;4933842;28;20489;-90
2022/06/03 06:53:40;;;;;;;7.70;6.90;;;;;;;15.31;63.90;101728.88;4935213;29;20544;-91
2022/06/03 06:56:24;;;;;;;8.60;6.68;;;;;;;15.46;62.72;101732.09;4950317;29;20046;-87
2022/06/03 06:58:57;;;;;;;8.32;7.25;;;;;;;15.62;62.48;101724.63;4951002;29;20063;-80
2022/06/03 07:01:28;;;;;;;9.82;8.10;;;;;;;15.80;62.55;101731.09;4933446;29;20058;-80
2022/06/03 07:04:01;;;;;;;9.52;7.75;;;;;;;16.07;61.68;101732.44;4935859;28;20034;-80
2022/06/03 07:06:36;;;;;;;8.30;6.82;;;;;;;16.39;59.21;101727.06;4970612;28;20027;-80
2022/06/03 07:09:11;;;;;;;8.63;7.72;;;;;;;16.71;60.56;101733.19;4963193;28;20038;-80
2022/06/03 07:12:09;;;;;;;9.40;7.88;;;;;;;17.03;59.78;101724.25;4953684;28;20031;-80
2022/06/03 07:14:42;;;;;;;7.07;6.32;;;;;;;17.33;56.30;101718.91;4944569;29;20058;-80
2022/06/03 07:20:33;;;;;;;12.25;6.93;;;;;;;17.78;56.75;101716.63;4953284;28;20444;-90
2022/06/03 07:23:11;;;;;;;8.18;6.75;;;;;;;18.09;56.85;101714.69;4960900;28;20037;-91
2022/06/03 07:25:47;;;;;;;10.30;7.20;;;;;;;18.34;54.60;101707.06;4942522;29;20088;-91
2022/06/03 07:28:50;;;;;;;7.70;6.40;;;;;;;18.59;55.00;101706.47;4937779;28;20097;-91
2022/06/03 07:31:36;;;;;;;9.23;8.27;;;;;;;18.82;53.33;101706.16;4967048;28;20122;-91
2022/06/03 07:34:25;;;;;;;7.82;6.95;;;;;;;19.10;53.21;101703.34;4970305;28;20019;-91
2022/06/03 07:36:59;;;;;;;9.13;7.63;;;;;;;19.04;52.03;101708.44;4983820;28;20069;-88
2022/06/03 07:39:34;;;;;;;10.35;7.32;;;;;;;19.02;52.17;101707.75;4963819;28;20057;-90
2022/06/03 07:42:24;;;;;;;10.48;7.28;;;;;;;19.01;52.97;101698.91;4970698;28;20027;-91
2022/06/03 07:45:26;;;;;;;8.10;7.15;;;;;;;19.16;51.94;101715.25;4958095;28;20042;-88
2022/06/03 07:47:54;;;;;;;10.40;6.97;;;;;;;19.25;51.70;101701.06;4979884;28;20039;-91
2022/06/03 07:50:21;;;;;;;10.30;7.32;;;;;;;19.36;49.92;101698.16;4962156;28;20035;-88
2022/06/03 07:53:11;;;;;;;9.13;7.25;;;;;;;19.58;51.84;101706.75;4960317;28;20109;-91
2022/06/03 07:55:37;;;;;;;9.27;7.55;;;;;;;19.89;50.80;101707.25;4968157;28;20026;-91
2022/06/03 07:58:06;;;;;;;9.48;8.35;;;;;;;19.97;49.90;101712.66;4969709;28;20023;-90
2022/06/03 08:00:38;;;;;;;10.15;7.65;;;;;;;20.10;49.17;101709.59;4963045;28;20113;-89
2022/06/03 08:03:14;;;;;;;7.90;7.10;;;;;;;20.25;49.37;101700.88;4970422;28;20031;-91
2022/06/03 08:05:42;;;;;;;9.88;8.90;;;;;;;20.29;49.49;101701.41;4966060;28;20030;-90
2022/06/03 08:10:58;;;;;;;8.88;7.90;;;;;;;20.77;49.73;101690.19;4949633;28;20690;-91
2022/06/03 08:13:31;;;;;;;8.88;7.97;;;;;;;20.86;48.37;101677.72;4962213;28;20673;-91
2022/06/03 08:16:06;;;;;;;10.20;7.80;;;;;;;21.05;48.97;101669.44;4969543;28;20027;-91
2022/06/03 08:18:40;;;;;;;10.55;9.45;;;;;;;21.05;48.72;101657.88;4979298;28;20045;-90
2022/06/03 08:21:09;;;;;;;10.10;9.20;;;;;;;21.20;49.00;101654.41;4967491;28;20128;-90
2022/06/03 08:23:35;;;;;;;11.20;8.55;;;;;;;21.19;47.25;101663.44;4969011;28;20458;-88
2022/06/03 08:26:10;;;;;;;10.93;9.30;;;;;;;21.03;48.15;101660.72;4969520;28;20109;-90
2022/06/03 08:28:37;;;;;;;9.98;8.98;;;;;;;21.08;48.57;101661.06;4969220;28;20038;-90
2022/06/03 08:31:05;;;;;;;9.75;8.85;;;;;;;21.07;48.99;101659.41;4969510;28;20023;-90
2022/06/03 08:33:55;;;;;;;10.68;8.80;;;;;;;20.96;49.60;101657.88;4968537;28;20432;-90
2022/06/03 08:36:24;;;;;;;10.32;9.27;;;;;;;20.89;48.87;101658.69;4955277;28;20043;-90
2022/06/03 08:39:00;;;;;;;10.20;8.63;;;;;;;20.90;49.62;101663.03;4968103;28;20396;-90
2022/06/03 08:41:49;;;;;;;9.55;8.68;;;;;;;21.09;49.31;101661.91;4955591;28;20034;-90
2022/06/03 08:44:23;;;;;;;9.25;8.27;;;;;;;21.18;47.51;101659.09;4951310;29;20098;-90
2022/06/03 08:46:55;;;;;;;9.57;8.55;;;;;;;21.40;48.56;101655.00;4951329;28;20119;-89
2022/06/03 08:49:27;;;;;;;9.57;8.70;;;;;;;21.52;46.69;101663.56;4953791;28;20556;-88
2022/06/03 08:52:00;;;;;;;;;;;;;;;21.66;47.53;101659.41;4954443;28;20110;-87
2022/06/03 08:54:37;;;;;;;9.00;7.38;;;;;;;21.57;46.33;101666.59;4952496;29;20368;-89
2022/06/03 08:57:12;;;;;;;9.65;8.65;;;;;;;21.64;46.73;101664.94;4951897;28;20110;-88
2022/06/03 08:59:41;;;;;;;18.77;8.45;;;;;;;21.76;45.96;101666.28;4968585;28;20031;-88
2022/06/03 09:02:18;;;;;;;9.15;8.30;;;;;;;21.94;46.78;101668.78;4953771;29;20041;-90
2022/06/03 09:05:09;;;;;;;9.73;8.82;;;;;;;22.10;47.94;101663.47;4977614;28;20038;-89
2022/06/03 09:07:44;;;;;;;10.90;8.85;;;;;;;22.10;47.24;101658.13;4972037;28;20054;-89
2022/06/03 09:10:22;;;;;;;10.00;9.00;;;;;;;22.12;46.23;101657.94;4970765;28;20026;-88
2022/06/03 09:13:03;;;;;;;9.52;8.30;;;;;;;22.15;46.19;101652.25;4955778;28;20111;-89
2022/06/03 09:15:38;;;;;;;10.23;8.25;;;;;;;22.19;46.12;101649.06;4961510;28;20039;-87
2022/06/03 09:18:17;;;;;;;8.13;7.32;;;;;;;22.17;43.95;101653.75;4953169;28;20027;-88
2022/06/03 09:20:50;;;;;;;10.35;7.53;;;;;;;22.15;44.20;101652.25;4952464;28;20174;-87
2022/06/03 09:23:18;;;;;;;8.68;7.57;;;;;;;22.13;44.21;101667.66;4967052;28;20011;-87
2022/06/03 09:25:50;;;;;;;9.20;7.28;;;;;;;22.15;43.78;101666.47;4986414;28;20054;-87
2022/06/03 09:28:22;;;;;;;8.32;7.45;;;;;;;22.18;43.21;101659.94;4970673;28;20031;-87
2022/06/03 09:30:49;;;;;;;7.63;6.93;;;;;;;22.31;42.96;101654.88;4969569;28;20053;-87
2022/06/03 09:33:18;;;;;;;7.70;7.00;;;;;;;22.56;43.06;101654.84;4956819;28;20038;-87
2022/06/03 09:35:47;;;;;;;8.45;7.65;;;;;;;22.80;43.26;101644.00;4970100;28;20457;-87
2022/06/03 09:38:15;;;;;;;7.80;6.90;;;;;;;23.13;43.93;101656.31;4970218;28;20489;-86
2022/06/03 09:40:44;;;;;;;7.43;6.72;;;;;;;23.13;41.26;101644.72;4985419;28;20034;-87
2022/06/03 09:43:31;;;;;;;7.00;6.28;;;;;;;23.28;42.57;101644.84;4972543;28;20077;-86
2022/06/03 09:45:58;;;;;;;7.10;6.45;;;;;;;23.37;41.37;101651.81;4971305;28;20023;-86
2022/06/03 09:48:33;;;;;;;5.32;4.75;;;;;;;23.48;38.77;101647.88;4965817;28;20035;-86
2022/06/03 09:51:13;;;;;;;5.00;4.50;;;;;;;23.57;40.45;101642.31;4963187;28;20495;-87
2022/06/03 09:53:42;;;;;;;6.18;5.60;;;;;;;23.62;39.20;101642.63;4957329;28;20474;-86
2022/06/03 09:56:18;;;;;;;5.22;4.72;;;;;;;23.73;40.04;101641.38;4970785;28;20030;-86
2022/06/03 09:58:44;;;;;;;6.07;3.90;;;;;;;23.80;37.73;101636.09;4958639;28;20023;-86
2022/06/03 10:01:10;;;;;;;7.57;4.47;;;;;;;23.85;37.35;101625.63;4964127;28;20031;-87
2022/06/03 10:03:36;;;;;;;7.47;4.10;;;;;;;23.87;37.79;101631.66;4971224;28;20030;-86
2022/06/03 10:06:03;;;;;;;4.75;4.28;;;;;;;23.83;37.21;101623.13;4947610;28;20482;-86
2022/06/03 10:14:02;;;;;;;5.22;3.70;;;;;;;24.21;35.86;101625.81;4947230;28;20071;-87
2022/06/03 10:16:32;;;;;;;5.70;3.60;;;;;;;24.07;34.92;101627.47;4941340;28;20074;-86
2022/06/03 10:18:57;;;;;;;4.38;3.58;;;;;;;23.82;35.51;101623.31;4946730;28;20098;-85
2022/06/03 10:21:22;;;;;;;3.20;2.90;;;;;;;23.89;35.91;101619.72;4950339;28;20117;-87
2022/06/03 10:23:56;;;;;;;3.60;3.10;;;;;;;24.06;36.22;101605.13;4950159;28;20342;-86
2022/06/03 10:26:24;;;;;;;6.78;3.30;;;;;;;24.17;36.30;101593.06;4945319;28;20075;-86
2022/06/03 10:28:52;;;;;;;4.07;2.60;;;;;;;24.31;35.23;101597.63;4942160;28;20118;-86
2022/06/03 10:31:21;;;;;;;5.32;2.90;;;;;;;24.25;34.03;101597.50;4964227;28;20485;-86
2022/06/03 10:34:01;;;;;;;2.90;2.60;;;;;;;24.24;34.71;101591.31;4943601;28;20027;-87
2022/06/03 10:36:45;;;;;;;2.60;2.40;;;;;;;24.44;35.68;101590.78;4942923;28;20035;-87
2022/06/03 10:39:16;;;;;;;3.70;2.60;;;;;;;24.45;33.07;101596.00;4949219;28;20397;-87
2022/06/03 10:41:44;;;;;;;2.88;2.30;;;;;;;24.51;34.18;101591.72;4956552;28;20031;-86
2022/06/03 10:44:16;;;;;;;2.53;2.33;;;;;;;24.65;34.06;101598.94;4940846;28;20047;-86
2022/06/03 10:47:04;;;;;;;3.40;3.10;;;;;;;24.60;34.16;101598.66;4946117;28;20031;-87
2022/06/03 10:49:38;;;;;;;4.10;2.50;;;;;;;24.80;35.29;101591.66;4941072;28;20291;-87
2022/06/03 11:03:29;;;;;;;3.22;1.83;;;;;;;24.92;33.64;101590.16;4945155;28;20050;-86
2022/06/03 11:05:55;;;;;;;2.97;1.95;;;;;;;24.70;30.98;101585.75;4949079;28;20095;-85
2022/06/03 11:08:21;;;;;;;1.85;1.42;;;;;;;24.80;33.01;101575.50;4941658;28;20059;-87
2022/06/03 11:10:51;;;;;;;3.00;1.80;;;;;;;24.97;31.35;101581.50;4961911;28;20027;-87
2022/06/03 11:13:43;;;;;;;1.77;1.60;;;;;;;25.08;33.44;101564.03;4953223;28;20027;-87
2022/06/03 11:16:21;;;;;;;3.15;1.90;;;;;;;25.18;32.38;101570.78;4937882;28;20505;-80
2022/06/03 11:18:47;;;;;;;2.08;1.40;;;;;;;25.30;32.08;101581.91;4950900;28;20031;-80
2022/06/03 11:21:31;;;;;;;2.33;1.67;;;;;;;25.20;31.57;101576.81;4960518;28;20034;-80
2022/06/03 11:23:58;;;;;;;2.38;1.13;;;;;;;25.17;29.20;101570.97;4969054;28;20031;-80
2022/06/03 11:26:33;;;;;;;1.55;1.45;;;;;;;25.11;30.12;101569.88;4957515;28;20035;-80
2022/06/03 11:29:02;;;;;;;3.63;1.50;;;;;;;25.24;29.52;101571.91;4974097;28;20027;-80
2022/06/03 11:31:32;;;;;;;2.00;1.50;;;;;;;25.23;29.10;101573.75;4956659;28;20046;-80
2022/06/03 11:34:29;;;;;;;1.58;1.48;;;;;;;25.28;30.84;101562.41;4949403;28;20023;-80
2022/06/03 11:37:03;;;;;;;1.60;1.50;;;;;;;25.28;30.21;101573.19;4953354;28;20031;-80
2022/06/03 11:39:53;;;;;;;2.15;1.60;;;;;;;25.35;31.67;101565.16;4959962;28;20031;-81
2022/06/03 11:42:22;;;;;;;1.77;1.50;;;;;;;25.32;30.43;101569.06;4953013;28;20028;-80
2022/06/03 11:45:00;;;;;;;1.80;1.52;;;;;;;25.20;30.32;101559.81;4949641;28;20031;-79
2022/06/03 11:47:34;;;;;;;1.75;1.58;;;;;;;25.29;30.55;101564.06;4966119;28;20033;-81
2022/06/03 11:50:00;;;;;;;2.45;2.10;;;;;;;25.25;30.56;101568.19;4961093;28;20034;-80
2022/06/03 11:52:26;;;;;;;2.80;1.92;;;;;;;25.34;31.12;101566.19;4952666;28;20086;-81
2022/06/03 11:54:52;;;;;;;2.22;1.90;;;;;;;25.33;30.59;101570.75;4968366;28;20036;-80
2022/06/03 11:57:18;;;;;;;3.00;1.75;;;;;;;25.35;30.36;101568.69;4949776;28;20019;-79
2022/06/03 11:59:58;;;;;;;1.98;1.60;;;;;;;25.59;31.70;101575.50;4957493;28;20031;-82
2022/06/03 12:02:42;;;;;;;2.22;2.00;;;;;;;25.50;30.55;101572.13;4952566;28;20460;-81
2022/06/03 12:05:12;;;;;;;4.57;1.80;;;;;;;25.55;31.19;101574.25;4949776;28;20030;-79
2022/06/03 12:07:56;;;;;;;2.38;1.90;;;;;;;25.86;30.69;101565.81;4947196;28;20074;-80
2022/06/03 12:10:34;;;;;;;1.98;1.40;;;;;;;26.12;30.85;101567.88;4961862;28;20035;-81
2022/06/03 12:13:33;;;;;;;3.90;2.50;;;;;;;26.37;31.26;101562.84;4965513;28;20042;-82
2022/06/03 12:16:02;;;;;;;2.78;1.88;;;;;;;26.39;29.11;101560.78;4947304;28;20031;-81
2022/06/03 12:18:42;;;;;;;2.75;1.80;;;;;;;26.38;29.05;101551.00;4948722;28;20023;-80
2022/06/03 12:21:09;;;;;;;4.30;1.60;;;;;;;26.56;29.23;101554.03;4949641;28;20031;-80
2022/06/03 12:23:37;;;;;;;3.00;2.40;;;;;;;26.53;28.32;101551.72;4955547;28;20564;-80
2022/06/03 12:26:11;;;;;;;5.10;2.00;;;;;;;26.32;29.05;101549.09;4955823;28;20019;-80
2022/06/03 12:28:36;;;;;;;7.72;2.00;;;;;;;26.22;29.26;101542.19;4952575;28;20050;-80
2022/06/03 12:31:07;;;;;;;2.28;2.05;;;;;;;26.10;29.21;101543.81;4955888;28;20081;-80
2022/06/03 12:33:57;;;;;;;3.67;1.27;;;;;;;26.33;29.86;101537.25;4970111;28;20038;-80
2022/06/03 12:36:50;;;;;;;5.03;1.60;;;;;;;26.44;29.84;101536.75;4966720;28;20031;-80
2022/06/03 12:39:18;;;;;;;2.10;1.90;;;;;;;26.45;29.94;101536.53;4957507;28;20027;-80
2022/06/03 12:41:44;;;;;;;2.33;2.08;;;;;;;26.47;30.77;101536.34;4950128;28;20023;-81
2022/06/03 12:44:32;;;;;;;3.05;2.38;;;;;;;26.48;31.34;101532.59;4973489;28;20041;-80
2022/06/03 12:47:31;;;;;;;6.57;2.35;;;;;;;26.46;30.67;101540.06;4973048;28;20027;-81
2022/06/03 12:50:05;;;;;;;2.53;2.30;;;;;;;26.48;31.10;101528.03;4944556;28;20378;-81
2022/06/03 12:52:33;;;;;;;2.85;2.35;;;;;;;26.42;28.83;101538.81;4962209;28;20027;-80
2022/06/03 12:55:02;;;;;;;3.05;1.60;;;;;;;26.34;29.31;101530.88;4965759;28;20031;-80